createdAt,value
2023-05-07T00:00:59.897Z,22.33
2023-05-07T00:01:59.908Z,22.33
2023-05-07T00:03:00.181Z,22.32
2023-05-07T00:04:00.156Z,22.32
2023-05-07T00:05:00.161Z,22.33
2023-05-07T00:06:00.012Z,22.32
2023-05-07T00:07:00.052Z,22.32
2023-05-07T00:08:00.111Z,22.32
2023-05-07T00:09:00.153Z,22.32
2023-05-07T00:10:00.162Z,22.32
2023-05-07T00:11:00.190Z,22.32
2023-05-07T00:12:00.249Z,22.32
2023-05-07T00:13:00.379Z,22.31
2023-05-07T00:14:00.285Z,22.32
2023-05-07T00:15:00.322Z,22.32
2023-05-07T00:16:00.348Z,22.32
2023-05-07T00:17:00.428Z,22.32
2023-05-07T00:18:00.512Z,22.32
2023-05-07T00:19:00.428Z,22.31
2023-05-07T00:20:00.449Z,22.32
2023-05-07T00:21:00.504Z,22.31
2023-05-07T00:22:00.536Z,22.31
2023-05-07T00:23:00.582Z,22.31
2023-05-07T00:24:00.597Z,22.30
2023-05-07T00:25:00.625Z,22.31
2023-05-07T00:26:00.653Z,22.30
2023-05-07T00:27:00.673Z,22.31
2023-05-07T00:28:00.706Z,22.31
2023-05-07T00:29:00.728Z,22.31
2023-05-07T00:30:01.091Z,22.31
2023-05-07T00:31:00.786Z,22.30
2023-05-07T00:32:00.926Z,22.30
2023-05-07T00:33:00.890Z,22.29
2023-05-07T00:34:00.895Z,22.31
2023-05-07T00:35:00.936Z,22.31
2023-05-07T00:36:00.976Z,22.30
2023-05-07T00:37:00.996Z,22.29
2023-05-07T00:38:01.030Z,22.29
2023-05-07T00:39:01.076Z,22.29
2023-05-07T00:40:01.107Z,22.29
2023-05-07T00:41:01.148Z,22.29
2023-05-07T00:42:01.169Z,22.29
2023-05-07T00:43:01.203Z,22.29
2023-05-07T00:44:01.230Z,22.28
2023-05-07T00:45:01.276Z,22.28
2023-05-07T00:46:01.327Z,22.28
2023-05-07T00:47:01.349Z,22.28
2023-05-07T00:48:01.452Z,22.29
2023-05-07T00:49:01.403Z,22.29
2023-05-07T00:50:01.451Z,22.28
2023-05-07T00:51:01.463Z,22.28
2023-05-07T00:52:01.511Z,22.28
2023-05-07T00:53:01.538Z,22.28
2023-05-07T00:54:01.580Z,22.28
2023-05-07T00:55:01.611Z,22.28
2023-05-07T00:56:01.644Z,22.28
2023-05-07T00:57:01.677Z,22.27
2023-05-07T00:58:01.727Z,22.28
2023-05-07T00:59:01.798Z,22.27
2023-05-07T01:00:01.784Z,22.27
2023-05-07T01:01:01.831Z,22.27
2023-05-07T01:02:01.856Z,22.27
2023-05-07T01:03:01.923Z,22.27
2023-05-07T01:04:01.945Z,22.26
2023-05-07T01:05:01.965Z,22.26
2023-05-07T01:06:01.994Z,22.27
2023-05-07T01:07:02.051Z,22.26
2023-05-07T01:08:02.069Z,22.26
2023-05-07T01:09:02.106Z,22.26
2023-05-07T01:10:02.137Z,22.26
2023-05-07T01:11:02.182Z,22.26
2023-05-07T01:12:02.204Z,22.25
2023-05-07T01:13:02.269Z,22.25
2023-05-07T01:14:02.275Z,22.26
2023-05-07T01:15:02.331Z,22.26
2023-05-07T01:16:02.344Z,22.26
2023-05-07T01:17:02.412Z,22.25
2023-05-07T01:18:02.470Z,22.25
2023-05-07T01:19:02.470Z,22.25
2023-05-07T01:20:02.489Z,22.25
2023-05-07T01:21:02.528Z,22.24
2023-05-07T01:22:02.575Z,22.25
2023-05-07T01:23:02.600Z,22.24
2023-05-07T01:24:02.638Z,22.25
2023-05-07T01:25:02.708Z,22.24
2023-05-07T01:26:02.722Z,22.25
2023-05-07T01:27:02.777Z,22.24
2023-05-07T01:28:02.775Z,22.24
2023-05-07T01:29:02.812Z,22.24
2023-05-07T01:30:02.920Z,22.23
2023-05-07T01:31:02.954Z,22.24
2023-05-07T01:32:03.002Z,22.23
2023-05-07T01:33:02.996Z,22.23
2023-05-07T01:34:03.006Z,22.23
2023-05-07T01:35:03.039Z,22.23
2023-05-07T01:36:03.080Z,22.22
2023-05-07T01:37:03.122Z,22.23
2023-05-07T01:38:03.158Z,22.23
2023-05-07T01:39:03.199Z,22.23
2023-05-07T01:40:03.227Z,22.23
2023-05-07T01:41:03.259Z,22.22
2023-05-07T01:42:03.312Z,22.22
2023-05-07T01:43:03.346Z,22.22
2023-05-07T01:44:03.388Z,22.22
2023-05-07T01:45:03.408Z,22.22
2023-05-07T01:46:03.554Z,22.21
2023-05-07T01:47:03.509Z,22.21
2023-05-07T01:48:04.370Z,22.21
2023-05-07T01:49:03.569Z,22.21
2023-05-07T01:50:03.611Z,22.21
2023-05-07T01:51:03.649Z,22.21
2023-05-07T01:52:03.698Z,22.21
2023-05-07T01:53:03.718Z,22.21
2023-05-07T01:54:03.757Z,22.21
2023-05-07T01:55:03.793Z,22.21
2023-05-07T01:56:03.832Z,22.21
2023-05-07T01:57:03.864Z,22.20
2023-05-07T01:58:03.904Z,22.20
2023-05-07T01:59:03.929Z,22.20
2023-05-07T02:00:04.005Z,22.20
2023-05-07T02:01:04.013Z,22.20
2023-05-07T02:02:04.191Z,22.19
2023-05-07T02:03:04.310Z,22.19
2023-05-07T02:04:04.176Z,22.20
2023-05-07T02:05:04.188Z,22.19
2023-05-07T02:06:04.824Z,22.20
2023-05-07T02:07:04.268Z,22.20
2023-05-07T02:08:04.305Z,22.18
2023-05-07T02:09:04.343Z,22.19
2023-05-07T02:10:04.394Z,22.18
2023-05-07T02:11:04.411Z,22.18
2023-05-07T02:12:04.471Z,22.18
2023-05-07T02:13:04.568Z,22.18
2023-05-07T02:14:04.555Z,22.18
2023-05-07T02:15:04.600Z,22.18
2023-05-07T02:16:04.660Z,22.18
2023-05-07T02:17:04.713Z,22.17
2023-05-07T02:18:04.847Z,22.18
2023-05-07T02:19:04.768Z,22.18
2023-05-07T02:20:04.822Z,22.18
2023-05-07T02:21:04.857Z,22.17
2023-05-07T02:22:04.906Z,22.17
2023-05-07T02:23:05.003Z,22.17
2023-05-07T02:24:04.975Z,22.17
2023-05-07T02:25:05.014Z,22.17
2023-05-07T02:26:05.062Z,22.16
2023-05-07T02:27:05.102Z,22.17
2023-05-07T02:28:05.855Z,22.16
2023-05-07T02:29:05.159Z,22.16
2023-05-07T02:30:05.248Z,22.16
2023-05-07T02:31:05.237Z,22.16
2023-05-07T02:32:05.324Z,22.15
2023-05-07T02:33:05.357Z,22.16
2023-05-07T02:34:05.424Z,22.16
2023-05-07T02:35:05.400Z,22.15
2023-05-07T02:36:05.468Z,22.15
2023-05-07T02:37:05.503Z,22.16
2023-05-07T02:38:05.541Z,22.15
2023-05-07T02:39:05.618Z,22.15
2023-05-07T02:40:05.627Z,22.14
2023-05-07T02:41:05.651Z,22.15
2023-05-07T02:42:05.701Z,22.14
2023-05-07T02:43:05.734Z,22.14
2023-05-07T02:44:05.779Z,22.14
2023-05-07T02:45:05.822Z,22.13
2023-05-07T02:46:05.890Z,22.13
2023-05-07T02:47:05.910Z,22.12
2023-05-07T02:48:05.973Z,22.13
2023-05-07T02:49:05.977Z,22.13
2023-05-07T02:50:06.108Z,22.12
2023-05-07T02:51:06.045Z,22.13
2023-05-07T02:52:06.090Z,22.12
2023-05-07T02:53:06.129Z,22.12
2023-05-07T02:54:06.174Z,22.11
2023-05-07T02:55:06.214Z,22.12
2023-05-07T02:56:06.256Z,22.11
2023-05-07T02:57:06.331Z,22.12
2023-05-07T02:58:06.347Z,22.11
2023-05-07T02:59:06.402Z,22.12
2023-05-07T03:00:06.422Z,22.11
2023-05-07T03:01:06.493Z,22.10
2023-05-07T03:02:06.534Z,22.11
2023-05-07T03:03:06.655Z,22.11
2023-05-07T03:04:06.664Z,22.10
2023-05-07T03:05:06.657Z,22.10
2023-05-07T03:06:06.768Z,22.10
2023-05-07T03:07:06.736Z,22.10
2023-05-07T03:08:06.787Z,22.10
2023-05-07T03:09:06.846Z,22.10
2023-05-07T03:10:06.878Z,22.10
2023-05-07T03:11:06.932Z,22.10
2023-05-07T03:12:06.986Z,22.10
2023-05-07T03:13:07.109Z,22.09
2023-05-07T03:14:07.058Z,22.09
2023-05-07T03:15:07.120Z,22.09
2023-05-07T03:16:07.207Z,22.09
2023-05-07T03:17:07.201Z,22.09
2023-05-07T03:18:07.423Z,22.08
2023-05-07T03:19:07.417Z,22.08
2023-05-07T03:20:07.394Z,22.08
2023-05-07T03:21:07.383Z,22.08
2023-05-07T03:22:07.475Z,22.08
2023-05-07T03:23:07.461Z,22.07
2023-05-07T03:24:07.522Z,22.07
2023-05-07T03:25:07.545Z,22.07
2023-05-07T03:26:07.610Z,22.07
2023-05-07T03:27:07.632Z,22.07
2023-05-07T03:28:07.686Z,22.06
2023-05-07T03:29:07.723Z,22.06
2023-05-07T03:30:07.883Z,22.06
2023-05-07T03:31:07.853Z,22.06
2023-05-07T03:32:07.845Z,22.06
2023-05-07T03:33:07.966Z,22.06
2023-05-07T03:34:07.931Z,22.04
2023-05-07T03:35:07.995Z,22.05
2023-05-07T03:36:08.028Z,22.06
2023-05-07T03:37:08.078Z,22.05
2023-05-07T03:38:08.178Z,22.04
2023-05-07T03:39:08.178Z,22.04
2023-05-07T03:40:08.296Z,22.05
2023-05-07T03:41:08.265Z,22.04
2023-05-07T03:42:08.310Z,22.04
2023-05-07T03:43:08.375Z,22.04
2023-05-07T03:44:08.436Z,22.04
2023-05-07T03:45:08.469Z,22.03
2023-05-07T03:46:08.593Z,22.03
2023-05-07T03:47:08.579Z,22.04
2023-05-07T03:48:08.762Z,22.02
2023-05-07T03:49:08.676Z,22.02
2023-05-07T03:50:08.906Z,22.02
2023-05-07T03:51:08.776Z,22.02
2023-05-07T03:52:08.831Z,22.02
2023-05-07T03:53:08.890Z,22.02
2023-05-07T03:54:08.916Z,22.02
2023-05-07T03:55:08.963Z,22.01
2023-05-07T03:56:09.029Z,22.00
2023-05-07T03:57:09.069Z,22.01
2023-05-07T03:58:09.145Z,22.00
2023-05-07T03:59:09.189Z,22.00
2023-05-07T04:00:09.584Z,22.01
2023-05-07T04:01:09.271Z,22.01
2023-05-07T04:02:09.392Z,22.00
2023-05-07T04:03:09.471Z,22.00
2023-05-07T04:04:09.468Z,22.00
2023-05-07T04:05:09.492Z,22.00
2023-05-07T04:06:09.516Z,21.99
2023-05-07T04:07:09.571Z,22.00
2023-05-07T04:08:09.628Z,21.99
2023-05-07T04:09:10.468Z,21.99
2023-05-07T04:10:09.984Z,21.99
2023-05-07T04:11:09.741Z,21.99
2023-05-07T04:12:09.794Z,21.99
2023-05-07T04:13:09.878Z,21.98
2023-05-07T04:14:09.873Z,21.99
2023-05-07T04:15:09.926Z,21.98
2023-05-07T04:16:10.014Z,21.98
2023-05-07T04:17:09.991Z,21.99
2023-05-07T04:18:10.057Z,21.98
2023-05-07T04:19:10.103Z,21.98
2023-05-07T04:20:10.278Z,21.98
2023-05-07T04:21:11.442Z,21.98
2023-05-07T04:22:10.214Z,21.98
2023-05-07T04:23:10.291Z,21.98
2023-05-07T04:24:10.321Z,21.97
2023-05-07T04:25:10.426Z,21.98
2023-05-07T04:26:10.435Z,21.97
2023-05-07T04:27:10.476Z,21.98
2023-05-07T04:28:10.524Z,21.98
2023-05-07T04:29:10.566Z,21.97
2023-05-07T04:30:10.852Z,21.98
2023-05-07T04:31:10.696Z,21.98
2023-05-07T04:32:10.880Z,21.98
2023-05-07T04:33:10.810Z,21.98
2023-05-07T04:34:10.823Z,21.98
2023-05-07T04:35:10.869Z,21.98
2023-05-07T04:36:10.911Z,21.98
2023-05-07T04:37:10.951Z,21.98
2023-05-07T04:38:11.017Z,21.98
2023-05-07T04:39:11.045Z,21.98
2023-05-07T04:40:11.395Z,21.98
2023-05-07T04:41:11.238Z,21.97
2023-05-07T04:42:11.193Z,21.98
2023-05-07T04:43:11.225Z,21.98
2023-05-07T04:44:11.313Z,21.98
2023-05-07T04:45:11.339Z,21.98
2023-05-07T04:46:11.426Z,21.99
2023-05-07T04:47:11.435Z,21.98
2023-05-07T04:48:11.464Z,21.98
2023-05-07T04:49:11.516Z,21.98
2023-05-07T04:50:11.718Z,21.98
2023-05-07T04:51:11.619Z,21.98
2023-05-07T04:52:11.692Z,21.99
2023-05-07T04:53:11.730Z,21.98
2023-05-07T04:54:11.789Z,21.98
2023-05-07T04:55:11.840Z,21.98
2023-05-07T04:56:11.874Z,21.99
2023-05-07T04:57:11.989Z,21.98
2023-05-07T04:58:11.986Z,21.99
2023-05-07T04:59:12.026Z,21.98
2023-05-07T05:00:12.232Z,21.99
2023-05-07T05:01:12.154Z,21.99
2023-05-07T05:02:12.172Z,21.99
2023-05-07T05:03:12.316Z,21.99
2023-05-07T05:04:12.330Z,21.99
2023-05-07T05:05:12.322Z,21.99
2023-05-07T05:06:12.364Z,22.00
2023-05-07T05:07:12.408Z,21.99
2023-05-07T05:08:12.461Z,21.98
2023-05-07T05:09:12.495Z,21.99
2023-05-07T05:10:12.727Z,21.99
2023-05-07T05:11:12.600Z,22.00
2023-05-07T05:12:12.653Z,21.99
2023-05-07T05:13:12.775Z,21.99
2023-05-07T05:14:12.729Z,21.99
2023-05-07T05:15:12.781Z,22.00
2023-05-07T05:16:12.857Z,21.99
2023-05-07T05:17:12.879Z,21.99
2023-05-07T05:18:12.926Z,21.99
2023-05-07T05:19:12.953Z,22.00
2023-05-07T05:20:13.086Z,22.00
2023-05-07T05:21:13.031Z,22.00
2023-05-07T05:22:13.080Z,22.00
2023-05-07T05:23:13.125Z,22.00
2023-05-07T05:24:13.176Z,22.01
2023-05-07T05:25:13.231Z,22.01
2023-05-07T05:26:13.272Z,22.02
2023-05-07T05:27:13.313Z,22.02
2023-05-07T05:28:13.384Z,22.03
2023-05-07T05:29:13.415Z,22.03
2023-05-07T05:30:13.626Z,22.02
2023-05-07T05:31:13.558Z,22.04
2023-05-07T05:32:13.566Z,22.04
2023-05-07T05:33:13.678Z,22.05
2023-05-07T05:34:13.686Z,22.05
2023-05-07T05:35:13.690Z,22.07
2023-05-07T05:36:13.743Z,22.06
2023-05-07T05:37:13.797Z,22.05
2023-05-07T05:38:13.835Z,22.05
2023-05-07T05:39:13.885Z,22.06
2023-05-07T05:40:13.935Z,22.06
2023-05-07T05:41:13.988Z,22.07
2023-05-07T05:42:14.020Z,22.07
2023-05-07T05:43:14.077Z,22.08
2023-05-07T05:44:14.124Z,22.09
2023-05-07T05:45:14.236Z,22.09
2023-05-07T05:46:14.294Z,22.10
2023-05-07T05:47:14.261Z,22.10
2023-05-07T05:48:14.342Z,22.11
2023-05-07T05:49:14.353Z,22.12
2023-05-07T05:50:14.423Z,22.12
2023-05-07T05:51:14.458Z,22.13
2023-05-07T05:52:14.509Z,22.13
2023-05-07T05:53:14.543Z,22.13
2023-05-07T05:54:14.599Z,22.13
2023-05-07T05:55:14.651Z,22.14
2023-05-07T05:56:14.709Z,22.14
2023-05-07T05:57:14.756Z,22.15
2023-05-07T05:58:14.811Z,22.15
2023-05-07T05:59:14.928Z,22.16
2023-05-07T06:00:14.944Z,22.17
2023-05-07T06:01:14.950Z,22.17
2023-05-07T06:02:15.048Z,22.18
2023-05-07T06:03:15.053Z,22.19
2023-05-07T06:04:15.092Z,22.21
2023-05-07T06:05:15.156Z,22.21
2023-05-07T06:06:15.177Z,22.23
2023-05-07T06:07:15.217Z,22.24
2023-05-07T06:08:15.266Z,22.24
2023-05-07T06:09:15.312Z,22.26
2023-05-07T06:10:15.346Z,22.26
2023-05-07T06:11:15.400Z,22.27
2023-05-07T06:12:15.438Z,22.29
2023-05-07T06:13:15.539Z,22.29
2023-05-07T06:14:15.541Z,22.30
2023-05-07T06:15:15.583Z,22.30
2023-05-07T06:16:15.652Z,22.31
2023-05-07T06:17:15.700Z,22.30
2023-05-07T06:18:15.681Z,22.31
2023-05-07T06:19:15.956Z,22.30
2023-05-07T06:20:15.782Z,22.30
2023-05-07T06:21:15.821Z,22.30
2023-05-07T06:22:15.846Z,22.30
2023-05-07T06:23:17.811Z,22.29
2023-05-07T06:24:15.929Z,22.29
2023-05-07T06:25:15.962Z,22.30
2023-05-07T06:26:16.016Z,22.31
2023-05-07T06:27:16.050Z,22.30
2023-05-07T06:28:16.072Z,22.31
2023-05-07T06:29:16.106Z,22.30
2023-05-07T06:30:16.147Z,22.30
2023-05-07T06:31:16.260Z,22.31
2023-05-07T06:32:16.318Z,22.30
2023-05-07T06:33:16.320Z,22.30
2023-05-07T06:34:16.306Z,22.30
2023-05-07T06:35:16.331Z,22.29
2023-05-07T06:36:16.392Z,22.29
2023-05-07T06:37:16.405Z,22.29
2023-05-07T06:38:16.438Z,22.28
2023-05-07T06:39:16.490Z,22.29
2023-05-07T06:40:16.538Z,22.29
2023-05-07T06:41:16.564Z,22.28
2023-05-07T06:42:16.608Z,22.28
2023-05-07T06:43:16.659Z,22.27
2023-05-07T06:44:16.703Z,22.27
2023-05-07T06:45:16.737Z,22.27
2023-05-07T06:46:16.808Z,22.27
2023-05-07T06:47:16.823Z,22.26
2023-05-07T06:48:16.874Z,22.26
2023-05-07T06:49:16.911Z,22.26
2023-05-07T06:50:16.952Z,22.26
2023-05-07T06:51:16.987Z,22.26
2023-05-07T06:52:17.029Z,22.25
2023-05-07T06:53:17.076Z,22.25
2023-05-07T06:54:17.133Z,22.25
2023-05-07T06:55:17.149Z,22.25
2023-05-07T06:56:17.192Z,22.25
2023-05-07T06:57:17.251Z,22.24
2023-05-07T06:58:17.275Z,22.24
2023-05-07T06:59:17.322Z,22.24
2023-05-07T07:00:17.351Z,22.25
2023-05-07T07:01:17.425Z,22.24
2023-05-07T07:02:18.485Z,22.25
2023-05-07T07:03:17.476Z,22.25
2023-05-07T07:04:17.519Z,22.25
2023-05-07T07:05:17.596Z,22.26
2023-05-07T07:06:17.571Z,22.26
2023-05-07T07:07:17.595Z,22.26
2023-05-07T07:08:17.695Z,22.27
2023-05-07T07:09:17.667Z,22.27
2023-05-07T07:10:17.707Z,22.26
2023-05-07T07:11:17.743Z,22.27
2023-05-07T07:12:17.763Z,22.27
2023-05-07T07:13:17.827Z,22.27
2023-05-07T07:14:17.831Z,22.27
2023-05-07T07:15:17.865Z,22.27
2023-05-07T07:16:17.991Z,22.27
2023-05-07T07:17:17.914Z,22.27
2023-05-07T07:18:17.975Z,22.27
2023-05-07T07:19:18.022Z,22.26
2023-05-07T07:20:18.200Z,22.26
2023-05-07T07:21:18.215Z,22.26
2023-05-07T07:22:18.074Z,22.26
2023-05-07T07:23:18.143Z,22.24
2023-05-07T07:24:18.161Z,22.24
2023-05-07T07:25:18.210Z,22.24
2023-05-07T07:26:18.228Z,22.24
2023-05-07T07:27:18.257Z,22.24
2023-05-07T07:28:18.298Z,22.24
2023-05-07T07:29:18.321Z,22.23
2023-05-07T07:30:18.344Z,22.23
2023-05-07T07:31:18.418Z,22.24
2023-05-07T07:32:18.404Z,22.24
2023-05-07T07:33:18.489Z,22.23
2023-05-07T07:34:18.470Z,22.23
2023-05-07T07:35:18.496Z,22.23
2023-05-07T07:36:18.525Z,22.23
2023-05-07T07:37:18.676Z,22.23
2023-05-07T07:38:18.586Z,22.22
2023-05-07T07:39:18.618Z,22.23
2023-05-07T07:40:18.653Z,22.23
2023-05-07T07:41:18.680Z,22.22
2023-05-07T07:42:18.764Z,22.23
2023-05-07T07:43:18.761Z,22.23
2023-05-07T07:44:18.780Z,22.23
2023-05-07T07:45:18.817Z,22.22
2023-05-07T07:46:18.898Z,22.23
2023-05-07T07:47:18.879Z,22.23
2023-05-07T07:48:18.901Z,22.24
2023-05-07T07:49:18.945Z,22.24
2023-05-07T07:50:31.789Z,22.24
2023-05-07T07:51:19.961Z,22.24
2023-05-07T07:52:18.964Z,22.23
2023-05-07T07:53:19.019Z,22.24
2023-05-07T07:54:18.956Z,22.25
2023-05-07T07:55:18.929Z,22.25
2023-05-07T07:56:18.922Z,22.24
2023-05-07T07:57:18.911Z,22.24
2023-05-07T07:58:18.903Z,22.25
2023-05-07T07:59:18.897Z,22.24
2023-05-07T08:00:18.891Z,22.25
2023-05-07T08:01:18.869Z,22.25
2023-05-07T08:02:18.944Z,22.25
2023-05-07T08:03:18.990Z,22.25
2023-05-07T08:04:18.848Z,22.25
2023-05-07T08:05:18.824Z,22.25
2023-05-07T08:06:18.844Z,22.24
2023-05-07T08:07:18.878Z,22.25
2023-05-07T08:08:18.908Z,22.25
2023-05-07T08:09:18.932Z,22.24
2023-05-07T08:10:18.955Z,22.24
2023-05-07T08:11:18.993Z,22.24
2023-05-07T08:12:19.029Z,22.24
2023-05-07T08:13:19.105Z,22.24
2023-05-07T08:14:19.084Z,22.23
2023-05-07T08:15:19.127Z,22.23
2023-05-07T08:16:19.230Z,22.22
2023-05-07T08:17:19.246Z,22.21
2023-05-07T08:18:19.251Z,22.20
2023-05-07T08:19:19.245Z,22.20
2023-05-07T08:20:19.279Z,22.20
2023-05-07T08:21:19.292Z,22.20
2023-05-07T08:22:19.338Z,22.19
2023-05-07T08:23:19.354Z,22.19
2023-05-07T08:24:19.381Z,22.18
2023-05-07T08:25:19.413Z,22.18
2023-05-07T08:26:19.437Z,22.18
2023-05-07T08:27:19.485Z,22.16
2023-05-07T08:28:19.497Z,22.16
2023-05-07T08:29:19.523Z,22.16
2023-05-07T08:30:19.572Z,22.16
2023-05-07T08:31:19.626Z,22.15
2023-05-07T08:32:19.596Z,22.15
2023-05-07T08:33:19.632Z,22.14
2023-05-07T08:34:19.665Z,22.15
2023-05-07T08:35:19.683Z,22.13
2023-05-07T08:36:19.711Z,22.13
2023-05-07T08:37:19.753Z,22.13
2023-05-07T08:38:19.765Z,22.13
2023-05-07T08:39:19.778Z,22.12
2023-05-07T08:40:20.245Z,22.12
2023-05-07T08:41:19.890Z,22.11
2023-05-07T08:42:19.839Z,22.10
2023-05-07T08:43:19.873Z,22.11
2023-05-07T08:44:19.883Z,22.10
2023-05-07T08:45:19.899Z,22.10
2023-05-07T08:46:19.981Z,22.10
2023-05-07T08:47:22.220Z,22.10
2023-05-07T08:48:20.086Z,22.10
2023-05-07T08:49:20.101Z,22.09
2023-05-07T08:50:20.148Z,22.09
2023-05-07T08:51:20.130Z,22.10
2023-05-07T08:52:20.150Z,22.09
2023-05-07T08:53:20.193Z,22.09
2023-05-07T08:54:20.188Z,22.08
2023-05-07T08:55:20.232Z,22.09
2023-05-07T08:56:22.022Z,22.08
2023-05-07T08:57:20.329Z,22.09
2023-05-07T08:58:20.296Z,22.09
2023-05-07T08:59:20.298Z,22.08
2023-05-07T09:00:20.430Z,22.08
2023-05-07T09:01:20.368Z,22.08
2023-05-07T09:02:20.485Z,22.08
2023-05-07T09:03:20.485Z,22.08
2023-05-07T09:04:20.429Z,22.06
2023-05-07T09:05:20.410Z,22.07
2023-05-07T09:06:20.437Z,22.06
2023-05-07T09:07:20.437Z,22.06
2023-05-07T09:08:20.452Z,22.06
2023-05-07T09:09:20.463Z,22.06
2023-05-07T09:10:20.482Z,22.06
2023-05-07T09:11:20.518Z,22.06
2023-05-07T09:12:20.518Z,22.04
2023-05-07T09:13:20.628Z,22.04
2023-05-07T09:14:20.561Z,22.04
2023-05-07T09:15:20.577Z,22.02
2023-05-07T09:16:20.625Z,22.02
2023-05-07T09:17:20.632Z,22.02
2023-05-07T09:18:20.636Z,22.02
2023-05-07T09:19:20.639Z,22.02
2023-05-07T09:20:20.678Z,22.01
2023-05-07T09:21:20.677Z,22.01
2023-05-07T09:22:20.732Z,22.00
2023-05-07T09:23:20.723Z,22.00
2023-05-07T09:24:20.735Z,22.00
2023-05-07T09:25:20.776Z,22.01
2023-05-07T09:26:20.772Z,22.00
2023-05-07T09:27:20.804Z,22.00
2023-05-07T09:28:20.831Z,21.99
2023-05-07T09:29:20.950Z,22.00
2023-05-07T09:30:20.847Z,22.00
2023-05-07T09:31:21.594Z,21.99
2023-05-07T09:32:20.938Z,21.99
2023-05-07T09:33:20.903Z,22.00
2023-05-07T09:34:20.918Z,21.99
2023-05-07T09:35:20.939Z,22.00
2023-05-07T09:36:20.966Z,21.99
2023-05-07T09:37:20.982Z,22.00
2023-05-07T09:38:20.989Z,22.00
2023-05-07T09:39:21.039Z,21.99
2023-05-07T09:40:21.037Z,22.00
2023-05-07T09:41:21.071Z,21.99
2023-05-07T09:42:21.079Z,21.99
2023-05-07T09:43:21.093Z,21.99
2023-05-07T09:44:21.105Z,21.99
2023-05-07T09:45:21.650Z,22.00
2023-05-07T09:46:21.171Z,21.99
2023-05-07T09:47:21.244Z,21.99
2023-05-07T09:48:21.192Z,21.99
2023-05-07T09:49:21.215Z,21.99
2023-05-07T09:50:21.222Z,21.98
2023-05-07T09:51:21.234Z,21.97
2023-05-07T09:52:21.242Z,21.98
2023-05-07T09:53:21.290Z,21.98
2023-05-07T09:54:21.281Z,21.97
2023-05-07T09:55:21.307Z,21.98
2023-05-07T09:56:21.321Z,21.97
2023-05-07T09:57:21.337Z,21.98
2023-05-07T09:58:21.347Z,21.98
2023-05-07T09:59:21.394Z,21.98
2023-05-07T10:00:21.371Z,21.99
2023-05-07T10:01:21.488Z,21.98
2023-05-07T10:02:21.471Z,21.98
2023-05-07T10:03:21.520Z,21.98
2023-05-07T10:04:21.441Z,21.97
2023-05-07T10:05:21.467Z,21.98
2023-05-07T10:06:21.479Z,21.98
2023-05-07T10:07:21.491Z,21.99
2023-05-07T10:08:21.516Z,21.98
2023-05-07T10:09:21.518Z,21.99
2023-05-07T10:10:21.532Z,21.99
2023-05-07T10:11:21.542Z,21.99
2023-05-07T10:12:21.548Z,21.98
2023-05-07T10:13:21.634Z,21.99
2023-05-07T10:14:21.587Z,21.99
2023-05-07T10:15:21.588Z,21.99
2023-05-07T10:16:21.594Z,21.99
2023-05-07T10:17:21.769Z,21.99
2023-05-07T10:18:21.779Z,22.00
2023-05-07T10:19:21.646Z,21.98
2023-05-07T10:20:21.657Z,21.99
2023-05-07T10:21:21.721Z,21.99
2023-05-07T10:22:21.671Z,21.98
2023-05-07T10:23:21.687Z,21.99
2023-05-07T10:24:21.694Z,21.99
2023-05-07T10:25:21.709Z,22.00
2023-05-07T10:26:21.712Z,21.99
2023-05-07T10:27:21.725Z,21.99
2023-05-07T10:28:21.772Z,21.99
2023-05-07T10:29:21.740Z,21.99
2023-05-07T10:30:21.747Z,21.99
2023-05-07T10:31:21.780Z,21.99
2023-05-07T10:32:21.754Z,21.99
2023-05-07T10:33:21.885Z,21.99
2023-05-07T10:34:21.781Z,21.98
2023-05-07T10:35:21.793Z,21.97
2023-05-07T10:36:21.804Z,21.97
2023-05-07T10:37:21.805Z,21.97
2023-05-07T10:38:21.849Z,21.98
2023-05-07T10:39:21.826Z,21.97
2023-05-07T10:40:21.841Z,21.98
2023-05-07T10:41:21.856Z,21.97
2023-05-07T10:42:21.867Z,21.97
2023-05-07T10:43:21.890Z,21.97
2023-05-07T10:44:21.996Z,21.97
2023-05-07T10:45:21.905Z,21.97
2023-05-07T10:46:21.965Z,21.97
2023-05-07T10:47:21.938Z,21.96
2023-05-07T10:48:30.028Z,21.96
2023-05-07T10:49:24.605Z,21.95
2023-05-07T10:50:21.929Z,21.95
2023-05-07T10:51:21.880Z,21.94
2023-05-07T10:52:21.844Z,21.95
2023-05-07T10:53:21.805Z,21.95
2023-05-07T10:54:21.820Z,21.94
2023-05-07T10:55:21.741Z,21.94
2023-05-07T10:56:21.714Z,21.94
2023-05-07T10:57:21.690Z,21.94
2023-05-07T10:58:31.426Z,21.94
2023-05-07T10:59:21.676Z,21.93
2023-05-07T11:00:31.473Z,21.93
2023-05-07T11:01:22.596Z,21.92
2023-05-07T11:02:21.569Z,21.93
2023-05-07T11:03:21.548Z,21.93
2023-05-07T11:04:21.521Z,21.93
2023-05-07T11:05:21.652Z,21.93
2023-05-07T11:06:21.466Z,21.93
2023-05-07T11:07:21.447Z,21.94
2023-05-07T11:08:21.422Z,21.94
2023-05-07T11:09:21.402Z,21.94
2023-05-07T11:10:21.371Z,21.94
2023-05-07T11:11:21.355Z,21.94
2023-05-07T11:12:21.330Z,21.94
2023-05-07T11:13:21.408Z,21.95
2023-05-07T11:14:21.289Z,21.95
2023-05-07T11:15:21.260Z,21.96
2023-05-07T11:16:21.293Z,21.95
2023-05-07T11:17:21.238Z,21.95
2023-05-07T11:18:21.202Z,21.95
2023-05-07T11:19:21.187Z,21.96
2023-05-07T11:20:21.164Z,21.96
2023-05-07T11:21:21.233Z,21.96
2023-05-07T11:22:21.177Z,21.96
2023-05-07T11:23:21.165Z,21.96
2023-05-07T11:24:21.183Z,21.97
2023-05-07T11:25:21.222Z,21.97
2023-05-07T11:26:21.224Z,21.97
2023-05-07T11:27:21.225Z,21.97
2023-05-07T11:28:21.240Z,21.97
2023-05-07T11:29:22.474Z,21.97
2023-05-07T11:30:21.268Z,21.97
2023-05-07T11:31:21.332Z,21.97
2023-05-07T11:32:21.282Z,21.98
2023-05-07T11:33:21.313Z,21.98
2023-05-07T11:34:21.334Z,21.98
2023-05-07T11:35:21.341Z,21.98
2023-05-07T11:36:21.356Z,21.98
2023-05-07T11:37:21.382Z,21.98
2023-05-07T11:38:21.370Z,21.99
2023-05-07T11:39:21.404Z,21.99
2023-05-07T11:40:21.398Z,22.00
2023-05-07T11:41:21.408Z,22.00
2023-05-07T11:42:21.423Z,21.99
2023-05-07T11:43:21.428Z,21.99
2023-05-07T11:44:21.422Z,22.00
2023-05-07T11:45:21.424Z,21.99
2023-05-07T11:46:21.473Z,22.00
2023-05-07T11:47:21.500Z,21.99
2023-05-07T11:48:21.448Z,21.99
2023-05-07T11:49:21.492Z,21.99
2023-05-07T11:50:21.452Z,21.99
2023-05-07T11:51:21.464Z,22.00
2023-05-07T11:52:21.479Z,22.00
2023-05-07T11:53:21.475Z,22.00
2023-05-07T11:54:21.485Z,22.00
2023-05-07T11:55:21.485Z,21.99
2023-05-07T11:56:21.484Z,21.99
2023-05-07T11:57:21.506Z,22.00
2023-05-07T11:58:21.519Z,22.00
2023-05-07T11:59:21.489Z,21.99
2023-05-07T12:00:21.507Z,21.99
2023-05-07T12:01:21.505Z,22.00
2023-05-07T12:02:21.548Z,21.99
2023-05-07T12:03:21.563Z,21.99
2023-05-07T12:04:21.664Z,22.00
2023-05-07T12:05:21.524Z,22.00
2023-05-07T12:06:21.534Z,22.00
2023-05-07T12:07:21.569Z,21.99
2023-05-07T12:08:21.565Z,22.00
2023-05-07T12:09:21.551Z,21.99
2023-05-07T12:10:21.557Z,22.00
2023-05-07T12:11:21.549Z,21.99
2023-05-07T12:12:21.567Z,21.99
2023-05-07T12:13:21.620Z,22.00
2023-05-07T12:14:21.578Z,22.00
2023-05-07T12:15:21.598Z,22.00
2023-05-07T12:16:21.632Z,22.01
2023-05-07T12:17:21.642Z,22.01
2023-05-07T12:18:21.614Z,22.02
2023-05-07T12:19:21.612Z,22.02
2023-05-07T12:20:21.620Z,22.02
2023-05-07T12:21:21.613Z,22.02
2023-05-07T12:22:21.612Z,22.03
2023-05-07T12:23:21.617Z,22.02
2023-05-07T12:24:22.141Z,22.02
2023-05-07T12:25:21.631Z,22.03
2023-05-07T12:26:21.626Z,22.04
2023-05-07T12:27:21.621Z,22.04
2023-05-07T12:28:21.619Z,22.04
2023-05-07T12:29:21.649Z,22.05
2023-05-07T12:30:21.628Z,22.05
2023-05-07T12:31:21.683Z,22.05
2023-05-07T12:32:21.673Z,22.06
2023-05-07T12:33:21.646Z,22.07
2023-05-07T12:34:21.649Z,22.06
2023-05-07T12:35:21.643Z,22.07
2023-05-07T12:36:21.653Z,22.07
2023-05-07T12:37:21.669Z,22.07
2023-05-07T12:38:21.708Z,22.08
2023-05-07T12:39:21.675Z,22.08
2023-05-07T12:40:21.706Z,22.09
2023-05-07T12:41:21.679Z,22.09
2023-05-07T12:42:21.686Z,22.08
2023-05-07T12:43:21.675Z,22.09
2023-05-07T12:44:21.681Z,22.10
2023-05-07T12:45:21.687Z,22.10
2023-05-07T12:46:21.726Z,22.10
2023-05-07T12:47:21.733Z,22.11
2023-05-07T12:48:21.696Z,22.11
2023-05-07T12:49:23.695Z,22.11
2023-05-07T12:50:21.692Z,22.12
2023-05-07T12:51:21.636Z,22.12
2023-05-07T12:52:21.608Z,22.12
2023-05-07T12:53:21.586Z,22.13